Time;durP1;ratioP1;P1;durP2;ratioP2;P2;SDS_P1;SDS_P2;PMS_P1;PMS_P2;Temp;Humidity;BMP_temperature;BMP_pressure;BME280_temperature;BME280_humidity;BME280_pressure;Samples;Min_cycle;Max_cycle;Signal;HPM_P1;HPM_P2
2023/08/06 00:00:37;;;;;;;0.00;0.00;;;;;;;16.74;100.00;98604.44;4871862;29;20051;-89
2023/08/06 00:03:03;;;;;;;0.20;0.20;;;;;;;16.71;100.00;98588.69;4862245;29;20045;-89
2023/08/06 00:05:28;;;;;;;0.00;0.00;;;;;;;17.07;100.00;98647.63;4887532;29;20048;-90
2023/08/06 00:07:54;;;;;;;0.13;0.13;;;;;;;17.08;100.00;98660.34;4839355;29;20476;-89
2023/08/06 00:10:20;;;;;;;1.10;0.40;;;;;;;17.03;100.00;98661.13;4856847;29;20120;-89
2023/08/06 00:12:45;;;;;;;0.05;0.05;;;;;;;17.09;100.00;98678.69;4841567;29;20071;-89
2023/08/06 00:15:11;;;;;;;0.00;0.00;;;;;;;17.12;100.00;98684.03;4849219;29;20079;-90
2023/08/06 00:17:37;;;;;;;0.35;0.20;;;;;;;17.09;100.00;98678.69;4873739;29;20084;-89
2023/08/06 00:20:05;;;;;;;0.10;0.10;;;;;;;17.02;100.00;98659.63;4851404;29;20440;-89
2023/08/06 00:22:38;;;;;;;0.57;0.55;;;;;;;17.12;100.00;98677.66;4870963;29;20130;-88
2023/08/06 00:25:05;;;;;;;0.00;0.00;;;;;;;17.10;100.00;98671.81;4848432;29;20132;-89
2023/08/06 00:27:32;;;;;;;0.00;0.00;;;;;;;17.07;100.00;98667.22;4868140;29;20329;-91
2023/08/06 00:29:58;;;;;;;0.08;0.08;;;;;;;17.11;100.00;98676.13;4856942;29;20583;-92
2023/08/06 00:32:23;;;;;;;0.08;0.08;;;;;;;16.93;100.00;98648.69;4858263;29;20049;-92
2023/08/06 00:34:49;;;;;;;0.75;0.20;;;;;;;16.88;100.00;98641.84;4869668;29;20132;-92
2023/08/06 00:37:16;;;;;;;0.00;0.00;;;;;;;17.08;100.00;98665.97;4863320;29;20041;-93
2023/08/06 00:39:42;;;;;;;0.15;0.15;;;;;;;17.09;100.00;98662.66;4849807;29;20048;-92
2023/08/06 00:42:08;;;;;;;0.13;0.13;;;;;;;17.08;100.00;98654.75;4856313;29;20049;-91
2023/08/06 00:44:34;;;;;;;0.00;0.00;;;;;;;17.00;100.00;98653.75;4869472;29;20064;-92
2023/08/06 00:47:00;;;;;;;0.38;0.38;;;;;;;16.97;100.00;98649.19;4838141;29;20045;-91
2023/08/06 00:49:44;;;;;;;0.05;0.05;;;;;;;17.11;100.00;98668.50;4882361;29;20037;-91
2023/08/06 00:52:10;;;;;;;0.65;0.35;;;;;;;16.97;100.00;98643.59;4872780;29;20494;-93
2023/08/06 00:54:36;;;;;;;0.30;0.30;;;;;;;17.04;100.00;98660.63;4857055;29;20480;-93
2023/08/06 00:57:03;;;;;;;0.03;0.03;;;;;;;16.87;100.00;98645.91;4840094;29;20093;-93
2023/08/06 00:59:30;;;;;;;0.50;0.40;;;;;;;17.00;100.00;98664.97;4849335;29;20049;-92
2023/08/06 01:01:55;;;;;;;0.00;0.00;;;;;;;16.99;100.00;98667.00;5278389;23;21178;-90
2023/08/06 01:04:22;;;;;;;0.10;0.10;;;;;;;16.90;100.00;98652.53;4823096;24;20153;-89
2023/08/06 01:06:49;;;;;;;0.00;0.00;;;;;;;16.80;100.00;98640.84;4834187;29;20050;-88
2023/08/06 01:09:32;;;;;;;0.00;0.00;;;;;;;16.98;100.00;98656.34;4835536;29;20129;-88
2023/08/06 01:12:17;;;;;;;0.20;0.15;;;;;;;17.00;100.00;98642.56;4845230;29;20193;-88
2023/08/06 01:15:09;;;;;;;0.00;0.00;;;;;;;16.71;100.00;98613.88;4838790;29;20056;-88
2023/08/06 01:17:35;;;;;;;0.10;0.10;;;;;;;16.90;100.00;98649.72;4844716;29;20049;-88
2023/08/06 01:20:01;;;;;;;1.55;0.88;;;;;;;16.68;100.00;98622.53;4835718;29;20085;-87
2023/08/06 01:22:27;;;;;;;0.00;0.00;;;;;;;16.82;100.00;98635.50;4830521;29;20045;-88
2023/08/06 01:24:53;;;;;;;0.00;0.00;;;;;;;16.85;100.00;98636.50;4817015;29;20397;-88
2023/08/06 01:27:28;;;;;;;0.10;0.10;;;;;;;16.87;100.00;98639.53;4836455;29;20050;-88
2023/08/06 01:30:05;;;;;;;0.00;0.00;;;;;;;16.79;100.00;98628.88;4826853;29;20045;-88
2023/08/06 01:32:34;;;;;;;0.55;0.30;;;;;;;16.86;100.00;98632.44;4852164;29;20041;-88
2023/08/06 01:35:01;;;;;;;0.10;0.10;;;;;;;16.84;100.00;98612.56;4822053;29;20088;-87
2023/08/06 01:37:27;;;;;;;0.10;0.10;;;;;;;16.73;100.00;98614.13;4836402;29;20107;-92
2023/08/06 01:39:53;;;;;;;0.13;0.10;;;;;;;16.76;100.00;98613.09;4821988;29;20062;-91
2023/08/06 01:42:18;;;;;;;0.00;0.00;;;;;;;16.71;100.00;98605.47;4834758;29;20042;-93
2023/08/06 01:44:46;;;;;;;0.10;0.10;;;;;;;16.88;100.00;98622.22;4824420;29;20054;-91
2023/08/06 01:47:12;;;;;;;0.17;0.17;;;;;;;16.91;100.00;98626.03;4818194;29;20060;-92
2023/08/06 01:49:37;;;;;;;0.47;0.30;;;;;;;16.84;100.00;98616.13;4840668;29;20069;-92
2023/08/06 01:52:03;;;;;;;0.22;0.22;;;;;;;16.94;100.00;98644.63;4834483;29;20081;-91
2023/08/06 01:54:29;;;;;;;0.00;0.00;;;;;;;16.95;100.00;98630.09;4831519;29;20462;-91
2023/08/06 01:56:54;;;;;;;0.00;0.00;;;;;;;16.92;100.00;98619.16;4821144;29;20042;-91
2023/08/06 01:59:20;;;;;;;0.32;0.15;;;;;;;16.90;100.00;98630.13;4832547;29;20185;-91
2023/08/06 02:01:46;;;;;;;0.08;0.03;;;;;;;16.78;100.00;98623.81;4831014;29;20361;-91
2023/08/06 02:04:12;;;;;;;0.00;0.00;;;;;;;16.82;100.00;98629.13;4814469;29;20133;-91
2023/08/06 02:06:37;;;;;;;0.00;0.00;;;;;;;16.64;100.00;98606.00;4829155;29;20054;-91
2023/08/06 02:09:03;;;;;;;0.10;0.10;;;;;;;16.87;100.00;98633.94;4812648;29;20172;-91
2023/08/06 02:11:28;;;;;;;0.10;0.10;;;;;;;16.87;100.00;98619.94;4833372;29;20453;-91
2023/08/06 02:13:54;;;;;;;0.00;0.00;;;;;;;16.90;100.00;98621.72;4832883;29;20424;-92
2023/08/06 02:16:20;;;;;;;0.35;0.35;;;;;;;16.92;100.00;98613.56;4832031;29;20137;-92
2023/08/06 02:18:45;;;;;;;0.10;0.10;;;;;;;16.88;100.00;98613.06;4805872;29;20051;-91
2023/08/06 02:21:11;;;;;;;0.00;0.00;;;;;;;16.87;100.00;98617.91;4815085;29;20153;-91
2023/08/06 02:23:37;;;;;;;0.00;0.00;;;;;;;16.61;100.00;98569.88;4827099;29;20049;-92
2023/08/06 02:26:04;;;;;;;0.00;0.00;;;;;;;16.90;100.00;98625.28;4819925;29;20037;-91
2023/08/06 02:28:30;;;;;;;0.00;0.00;;;;;;;16.85;100.00;98616.91;4830285;29;20083;-91
2023/08/06 02:30:56;;;;;;;0.00;0.00;;;;;;;16.92;100.00;98624.75;4834519;29;20042;-92
2023/08/06 02:33:21;;;;;;;0.40;0.40;;;;;;;16.85;100.00;98614.09;4827191;29;20046;-89
2023/08/06 02:35:47;;;;;;;0.08;0.00;;;;;;;16.94;100.00;98628.59;4820085;29;20057;-88
2023/08/06 02:38:13;;;;;;;0.17;0.10;;;;;;;16.95;100.00;98612.53;4827114;29;20058;-87
2023/08/06 02:40:46;;;;;;;0.10;0.10;;;;;;;16.92;100.00;98605.91;4820269;29;20129;-87
2023/08/06 02:43:13;;;;;;;0.00;0.00;;;;;;;16.91;100.00;98609.22;4821524;29;20117;-87
2023/08/06 02:45:39;;;;;;;0.35;0.35;;;;;;;16.93;100.00;98615.84;4818410;29;20052;-88
2023/08/06 02:48:05;;;;;;;0.00;0.00;;;;;;;16.97;100.00;98615.59;4826627;29;20134;-88
2023/08/06 02:50:30;;;;;;;0.10;0.10;;;;;;;16.79;100.00;98586.09;4816432;29;20042;-87
2023/08/06 02:52:56;;;;;;;0.10;0.10;;;;;;;16.97;100.00;98610.75;4828211;29;20449;-88
2023/08/06 02:55:22;;;;;;;0.03;0.03;;;;;;;16.90;100.00;98593.72;4831920;29;20045;-88
2023/08/06 02:57:49;;;;;;;0.00;0.00;;;;;;;16.92;100.00;98605.16;4811191;29;20110;-87
2023/08/06 03:00:14;;;;;;;0.35;0.13;;;;;;;16.91;100.00;98598.03;4808624;29;20070;-88
2023/08/06 03:02:41;;;;;;;0.10;0.10;;;;;;;16.71;100.00;98583.06;4837948;29;20065;-87
2023/08/06 03:05:20;;;;;;;0.00;0.00;;;;;;;16.93;100.00;98620.69;4823696;29;20092;-88
2023/08/06 03:07:47;;;;;;;0.10;0.10;;;;;;;16.64;100.00;98586.41;4826165;29;20058;-88
2023/08/06 03:10:19;;;;;;;0.00;0.00;;;;;;;16.87;100.00;98620.69;4818446;29;20045;-88
2023/08/06 03:12:46;;;;;;;0.05;0.05;;;;;;;16.85;100.00;98628.09;4827722;29;20037;-87
2023/08/06 03:15:12;;;;;;;0.10;0.10;;;;;;;16.82;100.00;98626.34;4837817;29;20677;-90
2023/08/06 03:17:39;;;;;;;0.25;0.25;;;;;;;16.79;100.00;98623.28;4838784;29;20046;-91
2023/08/06 03:20:07;;;;;;;0.00;0.00;;;;;;;16.78;100.00;98621.75;4831317;29;20469;-92
2023/08/06 03:22:33;;;;;;;0.00;0.00;;;;;;;16.75;100.00;98605.97;4822641;29;20049;-91
2023/08/06 03:24:59;;;;;;;0.00;0.00;;;;;;;16.73;100.00;98608.53;4833774;29;20044;-90
2023/08/06 03:27:26;;;;;;;0.00;0.00;;;;;;;16.71;100.00;98605.47;4820358;29;20405;-90
2023/08/06 03:29:52;;;;;;;0.00;0.00;;;;;;;16.79;100.00;98616.91;4821369;29;20038;-88
2023/08/06 03:32:21;;;;;;;0.10;0.10;;;;;;;16.77;100.00;98614.63;4835925;29;20392;-88
2023/08/06 03:34:47;;;;;;;0.00;0.00;;;;;;;16.55;100.00;98586.66;4831451;29;20046;-88
2023/08/06 03:37:13;;;;;;;0.00;0.00;;;;;;;16.78;100.00;98626.59;4835361;29;20042;-88
2023/08/06 03:39:39;;;;;;;0.05;0.05;;;;;;;16.67;100.00;98610.56;4838947;29;20068;-88
2023/08/06 03:42:05;;;;;;;0.00;0.00;;;;;;;16.79;100.00;98634.47;4826392;29;20054;-88
2023/08/06 03:44:30;;;;;;;0.00;0.00;;;;;;;16.55;100.00;98597.84;4836965;29;20050;-88
2023/08/06 03:46:57;;;;;;;0.00;0.00;;;;;;;16.66;100.00;98614.63;4842982;29;20556;-88
2023/08/06 03:49:22;;;;;;;0.17;0.17;;;;;;;16.84;100.00;98634.97;4847091;29;20038;-89
2023/08/06 03:51:48;;;;;;;0.08;0.08;;;;;;;16.59;100.00;98587.19;4834163;29;20046;-88
2023/08/06 03:54:13;;;;;;;0.00;0.00;;;;;;;16.82;100.00;98615.13;4829590;29;20166;-88
2023/08/06 03:56:39;;;;;;;0.00;0.00;;;;;;;16.76;100.00;98606.75;4841518;29;20054;-88
2023/08/06 03:59:05;;;;;;;0.10;0.10;;;;;;;16.66;100.00;98580.31;4841710;29;20560;-88
2023/08/06 04:01:30;;;;;;;0.00;0.00;;;;;;;16.78;100.00;98607.75;4845113;29;20042;-88
2023/08/06 04:03:56;;;;;;;0.00;0.00;;;;;;;16.55;100.00;98581.06;4831004;29;20046;-88
2023/08/06 04:06:22;;;;;;;0.00;0.00;;;;;;;16.72;100.00;98604.22;4827547;29;20057;-88
2023/08/06 04:08:47;;;;;;;0.40;0.40;;;;;;;16.67;100.00;98585.38;4840205;29;20076;-89
2023/08/06 04:11:13;;;;;;;0.08;0.08;;;;;;;16.66;100.00;98591.50;4832947;29;20503;-88
2023/08/06 04:13:44;;;;;;;0.00;0.00;;;;;;;16.61;100.00;98575.47;4857152;29;20042;-88
2023/08/06 04:16:14;;;;;;;0.00;0.00;;;;;;;16.66;100.00;98583.84;4834825;29;20070;-89
2023/08/06 04:18:40;;;;;;;0.00;0.00;;;;;;;16.81;100.00;98608.00;4838881;29;20042;-88
2023/08/06 04:21:06;;;;;;;0.20;0.20;;;;;;;16.68;100.00;98577.75;4833613;29;20452;-88
2023/08/06 04:23:32;;;;;;;0.00;0.00;;;;;;;16.84;100.00;98590.16;4819139;29;20136;-88
2023/08/06 04:26:02;;;;;;;0.00;0.00;;;;;;;16.87;100.00;98600.31;4815863;29;20054;-88
2023/08/06 04:28:31;;;;;;;0.00;0.00;;;;;;;16.81;100.00;98580.00;4834620;29;20064;-87
2023/08/06 04:30:59;;;;;;;0.10;0.10;;;;;;;16.87;100.00;98600.31;4814559;29;20037;-88
2023/08/06 04:33:24;;;;;;;0.00;0.00;;;;;;;16.80;100.00;98582.03;4833179;29;20214;-88
2023/08/06 04:35:55;;;;;;;0.10;0.10;;;;;;;16.75;100.00;98580.78;4841332;29;20504;-88
2023/08/06 04:38:24;;;;;;;0.10;0.10;;;;;;;16.75;100.00;98563.97;4825153;29;20073;-88
2023/08/06 04:40:50;;;;;;;0.00;0.00;;;;;;;16.88;100.00;98579.44;4808820;29;20072;-88
2023/08/06 04:43:16;;;;;;;0.03;0.03;;;;;;;16.83;100.00;98566.22;4817256;29;20065;-88
2023/08/06 04:45:49;;;;;;;0.10;0.10;;;;;;;16.83;100.00;98572.59;4825546;29;20044;-88
2023/08/06 04:48:15;;;;;;;0.17;0.17;;;;;;;16.87;100.00;98589.13;4836675;29;20465;-87
2023/08/06 04:50:47;;;;;;;0.08;0.08;;;;;;;16.91;100.00;98581.22;4814546;29;20049;-88
2023/08/06 04:53:13;;;;;;;0.00;0.00;;;;;;;16.96;100.00;98580.44;4842411;29;20042;-88
2023/08/06 04:55:39;;;;;;;0.00;0.00;;;;;;;16.74;100.00;98539.31;4839348;29;20056;-88
2023/08/06 04:58:04;;;;;;;0.00;0.00;;;;;;;16.86;100.00;98559.63;4834469;29;20140;-91
2023/08/06 05:00:30;;;;;;;0.00;0.00;;;;;;;16.91;100.00;98553.22;4832204;29;20057;-91
2023/08/06 05:02:56;;;;;;;0.00;0.00;;;;;;;16.92;100.00;98551.94;4823687;29;20042;-92
2023/08/06 05:05:21;;;;;;;0.00;0.00;;;;;;;16.87;100.00;98553.47;4791219;29;20057;-91
2023/08/06 05:07:49;;;;;;;0.00;0.00;;;;;;;16.73;100.00;98546.94;4800192;29;20053;-92
2023/08/06 05:10:15;;;;;;;0.00;0.00;;;;;;;16.53;100.00;98519.25;4795611;29;20091;-92
2023/08/06 05:12:41;;;;;;;0.00;0.00;;;;;;;16.77;100.00;98552.28;4787337;29;20061;-92
2023/08/06 05:15:07;;;;;;;1.42;0.28;;;;;;;16.72;100.00;98562.22;4781422;29;20046;-92
2023/08/06 05:17:33;;;;;;;0.00;0.00;;;;;;;16.82;100.00;98571.09;4803516;29;20046;-89
2023/08/06 05:19:58;;;;;;;0.00;0.00;;;;;;;16.83;100.00;98574.63;4778052;29;20448;-89
2023/08/06 05:22:24;;;;;;;0.00;0.00;;;;;;;16.79;100.00;98574.91;4786521;29;20102;-89
2023/08/06 05:24:49;;;;;;;0.00;0.00;;;;;;;16.77;100.00;98572.63;4808456;29;20049;-88
2023/08/06 05:27:15;;;;;;;0.00;0.00;;;;;;;16.84;100.00;98579.72;4803407;29;20050;-87
2023/08/06 05:29:40;;;;;;;0.00;0.00;;;;;;;16.72;100.00;98562.22;4827586;29;20412;-87
2023/08/06 05:32:06;;;;;;;0.00;0.00;;;;;;;16.78;100.00;98585.34;4814232;29;20061;-90
2023/08/06 05:34:32;;;;;;;0.00;0.00;;;;;;;16.62;100.00;98552.56;4820513;29;20046;-87
2023/08/06 05:36:58;;;;;;;0.00;0.00;;;;;;;16.91;100.00;98595.22;4802727;29;20381;-90
2023/08/06 05:39:23;;;;;;;1.13;0.10;;;;;;;16.92;100.00;98593.94;4805869;29;20042;-89
2023/08/06 05:41:50;;;;;;;0.10;0.10;;;;;;;16.81;100.00;98568.78;4805301;29;21790;-89
2023/08/06 05:44:15;;;;;;;0.17;0.17;;;;;;;16.99;100.00;98594.16;4808237;29;20061;-90
2023/08/06 05:46:41;;;;;;;0.17;0.17;;;;;;;16.87;100.00;98572.31;4791659;29;20058;-90
2023/08/06 05:49:06;;;;;;;0.08;0.08;;;;;;;16.75;100.00;98549.19;4823204;29;20050;-89
2023/08/06 05:51:32;;;;;;;0.15;0.15;;;;;;;17.02;100.00;98590.38;4803902;29;20050;-90
2023/08/06 05:53:57;;;;;;;0.00;0.00;;;;;;;16.96;100.00;98566.44;4804260;29;20054;-90
2023/08/06 05:56:23;;;;;;;0.00;0.00;;;;;;;17.01;100.00;98577.63;4809276;29;20406;-89
2023/08/06 05:58:53;;;;;;;0.00;0.00;;;;;;;16.90;100.00;98540.50;4807466;29;20496;-89
2023/08/06 06:01:19;;;;;;;0.05;0.05;;;;;;;16.99;100.00;98554.19;4810356;29;20133;-89
2023/08/06 06:03:46;;;;;;;0.00;0.00;;;;;;;17.23;100.00;98571.13;4804377;29;20074;-89
2023/08/06 06:06:12;;;;;;;0.43;0.32;;;;;;;17.27;100.00;98575.19;4793017;29;20054;-88
2023/08/06 06:08:38;;;;;;;0.00;0.00;;;;;;;17.31;100.00;98563.69;4801005;29;20051;-88
2023/08/06 06:11:03;;;;;;;0.57;0.20;;;;;;;17.31;100.00;98562.97;4830981;29;20054;-88
2023/08/06 06:13:31;;;;;;;0.00;0.00;;;;;;;17.45;100.00;98593.44;4828068;29;20057;-88
2023/08/06 06:15:56;;;;;;;0.00;0.00;;;;;;;17.44;100.00;98589.13;4826181;29;20043;-89
2023/08/06 06:18:22;;;;;;;0.32;0.20;;;;;;;17.46;100.00;98594.22;4806309;29;20046;-88
2023/08/06 06:20:48;;;;;;;0.00;0.00;;;;;;;17.41;100.00;98592.19;4804456;29;20050;-89
2023/08/06 06:23:14;;;;;;;0.00;0.00;;;;;;;17.39;100.00;98586.34;4810056;29;20420;-88
2023/08/06 06:25:57;;;;;;;0.90;0.50;;;;;;;17.48;100.00;98603.63;4801618;29;20050;-88
2023/08/06 06:28:23;;;;;;;;;;;;;;;17.54;100.00;98606.41;4797336;29;20227;-89
2023/08/06 06:30:48;;;;;;;0.08;0.08;;;;;;;17.34;100.00;98581.53;4792701;29;20047;-88
2023/08/06 06:33:14;;;;;;;0.10;0.10;;;;;;;17.56;100.00;98615.03;4799900;29;20057;-89
2023/08/06 06:35:39;;;;;;;0.00;0.00;;;;;;;17.34;100.00;98582.31;4802287;29;20062;-88
2023/08/06 06:38:05;;;;;;;0.00;0.00;;;;;;;17.64;100.00;98610.44;4802373;29;20042;-88
2023/08/06 06:40:30;;;;;;;0.00;0.00;;;;;;;17.66;100.00;98619.84;4799856;29;20052;-88
2023/08/06 06:42:56;;;;;;;0.00;0.00;;;;;;;17.75;100.00;98620.81;4832253;29;20125;-88
2023/08/06 06:45:21;;;;;;;0.00;0.00;;;;;;;17.63;100.00;98592.09;4812539;29;20042;-88
2023/08/06 06:47:50;;;;;;;0.05;0.05;;;;;;;17.71;100.00;98604.28;4804107;29;20061;-88
2023/08/06 06:50:15;;;;;;;0.00;0.00;;;;;;;17.61;100.00;98587.00;4823526;29;20037;-88
2023/08/06 06:52:41;;;;;;;0.05;0.05;;;;;;;17.58;100.00;98590.84;4819882;29;20060;-88
2023/08/06 06:55:07;;;;;;;0.00;0.00;;;;;;;17.65;100.00;98589.53;4796186;29;20042;-88
2023/08/06 06:57:32;;;;;;;0.00;0.00;;;;;;;17.80;100.00;98612.34;4833357;29;20062;-88
2023/08/06 07:00:00;;;;;;;0.00;0.00;;;;;;;17.91;100.00;98625.56;4827682;29;20062;-89
2023/08/06 07:02:26;;;;;;;0.00;0.00;;;;;;;18.00;100.00;98631.59;4809747;29;20065;-88
2023/08/06 07:04:51;;;;;;;0.00;0.00;;;;;;;18.04;100.00;98632.06;4823129;29;20105;-88
2023/08/06 07:07:17;;;;;;;0.03;0.03;;;;;;;18.07;100.00;98635.91;4841062;29;20121;-89
2023/08/06 07:09:45;;;;;;;0.10;0.10;;;;;;;17.88;100.00;98620.97;4828434;29;20049;-88
2023/08/06 07:12:10;;;;;;;0.00;0.00;;;;;;;17.82;100.00;98606.25;4847089;29;21339;-88
2023/08/06 07:14:36;;;;;;;0.00;0.00;;;;;;;18.02;100.00;98628.28;4842682;29;20132;-92
2023/08/06 07:17:01;;;;;;;0.00;0.00;;;;;;;18.07;100.00;98642.28;4816268;29;20413;-93
2023/08/06 07:19:27;;;;;;;0.10;0.10;;;;;;;18.04;100.00;98632.06;4839535;29;20156;-93
2023/08/06 07:21:53;;;;;;;0.03;0.03;;;;;;;17.91;100.00;98622.75;4829177;29;20050;-92
2023/08/06 07:24:19;;;;;;;0.10;0.10;;;;;;;17.88;100.00;98598.53;4831929;29;20060;-92
2023/08/06 07:26:44;;;;;;;0.10;0.10;;;;;;;18.11;100.00;98634.34;4830586;29;20043;-88
2023/08/06 07:29:10;;;;;;;0.10;0.10;;;;;;;18.20;100.00;98636.03;4832114;29;20064;-87
2023/08/06 07:31:38;;;;;;;0.00;0.00;;;;;;;18.23;100.00;98640.63;4845064;29;20519;-89
2023/08/06 07:34:03;;;;;;;0.00;0.00;;;;;;;18.01;100.00;98601.50;4843448;29;20428;-88
2023/08/06 07:36:29;;;;;;;0.05;0.05;;;;;;;18.10;100.00;98612.41;4842511;29;20046;-88
2023/08/06 07:38:57;;;;;;;0.00;0.00;;;;;;;18.17;100.00;98623.81;4846507;29;20042;-88
2023/08/06 07:41:23;;;;;;;0.00;0.00;;;;;;;18.47;100.00;98646.28;4832663;29;20050;-87
2023/08/06 07:43:49;;;;;;;0.00;0.00;;;;;;;18.42;100.00;98621.03;4843149;29;20090;-88
2023/08/06 07:46:15;;;;;;;0.00;0.00;;;;;;;18.71;100.00;98631.50;4841510;29;20549;-93
2023/08/06 07:48:40;;;;;;;0.30;0.30;;;;;;;18.81;100.00;98632.66;4843236;29;20041;-92
2023/08/06 07:51:06;;;;;;;0.00;0.00;;;;;;;19.00;100.00;98641.16;4829623;29;20057;-92
2023/08/06 07:53:32;;;;;;;0.10;0.10;;;;;;;18.90;100.00;98614.69;4849652;29;20072;-91
2023/08/06 07:55:58;;;;;;;0.00;0.00;;;;;;;19.10;100.00;98631.81;4833052;29;20054;-92
2023/08/06 07:58:25;;;;;;;0.03;0.03;;;;;;;19.27;100.00;98631.63;4827924;29;20419;-92
2023/08/06 08:00:50;;;;;;;0.00;0.00;;;;;;;19.32;100.00;98616.75;4832671;29;20081;-91
2023/08/06 08:03:16;;;;;;;0.28;0.20;;;;;;;19.44;100.00;98601.28;4841537;29;20081;-93
2023/08/06 08:05:42;;;;;;;0.00;0.00;;;;;;;19.73;100.00;98627.72;4836843;29;20053;-93
2023/08/06 08:08:08;;;;;;;0.00;0.00;;;;;;;19.95;100.00;98626.59;4825746;29;20393;-93
2023/08/06 08:10:34;;;;;;;0.00;0.00;;;;;;;20.16;100.00;98629.59;4832172;29;20048;-93
2023/08/06 08:13:04;;;;;;;0.45;0.35;;;;;;;20.30;100.00;98600.97;4826917;29;20049;-92
2023/08/06 08:15:31;;;;;;;0.05;0.05;;;;;;;20.58;100.00;98619.47;4832057;29;20053;-92
2023/08/06 08:17:57;;;;;;;0.00;0.00;;;;;;;20.84;100.00;98633.56;4817358;29;20049;-93
2023/08/06 08:20:22;;;;;;;0.00;0.00;;;;;;;20.90;100.00;98646.25;4830102;29;20746;-91
2023/08/06 08:22:48;;;;;;;0.73;0.73;;;;;;;20.67;100.00;98633.09;4828976;29;20132;-93
2023/08/06 08:25:15;;;;;;;0.10;0.10;;;;;;;20.80;100.00;98622.59;4844891;29;20034;-92
2023/08/06 08:27:40;;;;;;;0.20;0.10;;;;;;;20.93;100.00;98647.22;4817823;29;20042;-93
2023/08/06 08:30:06;;;;;;;0.00;0.00;;;;;;;20.85;100.00;98652.00;4829307;29;20060;-93
2023/08/06 08:32:32;;;;;;;0.00;0.00;;;;;;;20.50;100.00;98641.09;4810116;29;20038;-92
2023/08/06 08:34:57;;;;;;;0.10;0.10;;;;;;;20.57;100.00;98646.09;4833577;29;20050;-93
2023/08/06 08:37:23;;;;;;;0.00;0.00;;;;;;;20.36;100.00;98632.63;4832792;29;20580;-92
2023/08/06 08:39:50;;;;;;;0.00;0.00;;;;;;;20.13;100.00;98622.25;4830738;29;20388;-93
2023/08/06 08:42:16;;;;;;;0.00;0.00;;;;;;;20.02;100.00;98659.75;4829802;29;20046;-94
2023/08/06 08:44:42;;;;;;;0.00;0.00;;;;;;;19.97;100.00;98649.38;4831393;29;20079;-90
2023/08/06 08:47:11;;;;;;;0.10;0.10;;;;;;;19.97;100.00;98649.38;4846548;29;20101;-92
2023/08/06 08:49:37;;;;;;;0.00;0.00;;;;;;;19.92;100.00;98641.75;4834098;29;20046;-91
2023/08/06 08:52:06;;;;;;;0.00;0.00;;;;;;;19.99;100.00;98658.78;4837173;29;20076;-93
2023/08/06 08:54:32;;;;;;;0.00;0.00;;;;;;;20.16;100.00;98663.38;4830064;29;20053;-92
2023/08/06 08:56:58;;;;;;;0.20;0.17;;;;;;;19.93;100.00;98660.16;4831734;29;20050;-92
2023/08/06 08:59:24;;;;;;;0.10;0.05;;;;;;;19.84;100.00;98643.66;4826466;29;20041;-93
2023/08/06 09:01:51;;;;;;;0.10;0.10;;;;;;;20.03;100.00;98673.31;4826421;29;20133;-93
2023/08/06 09:04:17;;;;;;;0.20;0.20;;;;;;;19.84;100.00;98671.81;4826860;29;20037;-92
2023/08/06 09:06:46;;;;;;;0.10;0.10;;;;;;;19.69;100.00;98663.84;4836492;29;20141;-91
2023/08/06 09:09:13;;;;;;;0.00;0.00;;;;;;;19.74;100.00;98684.72;4830253;29;20042;-92
2023/08/06 09:11:43;;;;;;;0.00;0.00;;;;;;;19.61;100.00;98664.97;4836597;29;20126;-93
2023/08/06 09:14:08;;;;;;;0.00;0.00;;;;;;;19.54;100.00;98666.31;4846127;29;20089;-93
2023/08/06 09:16:35;;;;;;;0.10;0.10;;;;;;;19.49;100.00;98655.94;4848763;29;20117;-94
2023/08/06 09:19:15;;;;;;;0.00;0.00;;;;;;;19.58;100.00;98671.63;4832716;29;20169;-92
2023/08/06 09:21:41;;;;;;;0.10;0.10;;;;;;;19.39;100.00;98641.44;4846745;29;20041;-92
2023/08/06 09:24:13;;;;;;;0.00;0.00;;;;;;;19.61;100.00;98664.97;4845439;29;20041;-93
2023/08/06 09:26:40;;;;;;;0.20;0.10;;;;;;;19.51;100.00;98659.72;4831819;29;20064;-92
2023/08/06 09:29:07;;;;;;;0.00;0.00;;;;;;;19.62;100.00;98683.34;4833958;29;20133;-88
2023/08/06 09:31:43;;;;;;;0.00;0.00;;;;;;;19.50;100.00;98677.88;4843827;29;20073;-89
2023/08/06 09:34:20;;;;;;;0.30;0.30;;;;;;;19.45;100.00;98653.41;4842101;29;20041;-89
2023/08/06 09:36:55;;;;;;;0.00;0.00;;;;;;;19.54;100.00;98677.56;4841153;29;20147;-89
2023/08/06 09:39:27;;;;;;;0.20;0.10;;;;;;;19.43;100.00;98661.63;4843354;29;20095;-87
2023/08/06 09:41:57;;;;;;;0.00;0.00;;;;;;;19.49;100.00;98690.41;4845353;29;20037;-87
2023/08/06 09:44:25;;;;;;;0.00;0.00;;;;;;;19.38;100.00;98679.28;4842166;29;20419;-87
2023/08/06 09:46:52;;;;;;;0.00;0.00;;;;;;;19.16;100.00;98643.00;4846623;29;20036;-88
2023/08/06 09:49:19;;;;;;;0.00;0.00;;;;;;;19.28;100.00;98675.31;4853055;29;20056;-88
2023/08/06 09:51:45;;;;;;;0.10;0.10;;;;;;;19.01;100.00;98648.28;4844165;29;20053;-88
2023/08/06 09:54:15;;;;;;;0.10;0.10;;;;;;;19.04;100.00;98650.81;4837777;29;20410;-87
2023/08/06 09:56:42;;;;;;;0.00;0.00;;;;;;;19.03;100.00;98662.59;4860794;29;20041;-88
2023/08/06 09:59:08;;;;;;;0.00;0.00;;;;;;;19.21;100.00;98667.47;4853161;29;20602;-87
2023/08/06 10:01:34;;;;;;;0.10;0.10;;;;;;;19.42;100.00;98684.59;4839740;29;20061;-88
2023/08/06 10:04:04;;;;;;;0.00;0.00;;;;;;;19.27;100.00;98668.19;4833252;29;20110;-89
2023/08/06 10:06:33;;;;;;;0.65;0.43;;;;;;;19.22;100.00;98680.25;4811882;29;20050;-88
2023/08/06 10:08:59;;;;;;;0.00;0.00;;;;;;;19.25;100.00;98690.41;4825715;29;20074;-88
2023/08/06 10:11:27;;;;;;;0.00;0.00;;;;;;;19.14;100.00;98670.13;4822486;29;20134;-88
2023/08/06 10:14:03;;;;;;;0.10;0.10;;;;;;;19.39;100.00;98714.53;4805762;29;20046;-88
2023/08/06 10:16:29;;;;;;;0.70;0.65;;;;;;;19.26;100.00;98708.06;4798870;29;20042;-89
2023/08/06 10:18:55;;;;;;;0.17;0.17;;;;;;;19.27;100.00;98715.97;4809218;29;20041;-88
2023/08/06 10:21:24;;;;;;;0.15;0.15;;;;;;;19.20;100.00;98699.69;4802641;29;20496;-88
2023/08/06 10:23:54;;;;;;;0.10;0.10;;;;;;;19.11;100.00;98700.03;4817362;29;20141;-89
2023/08/06 10:26:20;;;;;;;0.15;0.13;;;;;;;19.05;100.00;98704.94;4823153;29;20057;-88
2023/08/06 10:28:45;;;;;;;0.00;0.00;;;;;;;19.03;100.00;98713.16;4802883;29;20042;-88
2023/08/06 10:31:11;;;;;;;0.10;0.10;;;;;;;18.95;100.00;98723.47;4812382;29;20693;-89
2023/08/06 10:33:42;;;;;;;0.30;0.30;;;;;;;18.81;100.00;98714.13;4831028;29;20050;-90
2023/08/06 10:36:09;;;;;;;0.00;0.00;;;;;;;18.76;100.00;98717.00;4801092;29;20050;-89
2023/08/06 10:38:37;;;;;;;0.00;0.00;;;;;;;18.84;100.00;98727.16;4817361;29;20109;-89
2023/08/06 10:41:03;;;;;;;0.00;0.00;;;;;;;18.80;100.00;98732.31;4807897;29;20420;-89
2023/08/06 10:43:34;;;;;;;0.10;0.10;;;;;;;18.77;100.00;98735.38;4820601;29;20091;-89
2023/08/06 10:46:04;;;;;;;0.38;0.38;;;;;;;18.73;100.00;98743.31;4797303;29;20106;-89
2023/08/06 10:48:37;;;;;;;0.03;0.03;;;;;;;18.66;100.00;98739.03;4810653;29;20057;-89
2023/08/06 10:51:03;;;;;;;0.10;0.10;;;;;;;18.62;100.00;98750.56;4811921;29;20054;-89
2023/08/06 10:53:29;;;;;;;0.15;0.15;;;;;;;18.59;100.00;98742.44;4799209;29;20053;-88
2023/08/06 10:55:55;;;;;;;0.00;0.00;;;;;;;18.47;100.00;98741.72;4798107;29;20047;-88
2023/08/06 10:58:20;;;;;;;0.00;0.00;;;;;;;18.50;100.00;98742.72;4807264;29;20150;-90
2023/08/06 11:00:46;;;;;;;0.00;0.00;;;;;;;18.67;100.00;98765.09;4795590;29;20047;-91
2023/08/06 11:03:12;;;;;;;0.70;0.30;;;;;;;18.25;100.00;98719.44;4810370;29;20047;-91
2023/08/06 11:05:38;;;;;;;0.00;0.00;;;;;;;18.46;100.00;98765.47;4800525;29;20517;-90
2023/08/06 11:08:04;;;;;;;0.10;0.10;;;;;;;18.22;100.00;98747.78;4809989;29;20497;-89
2023/08/06 11:10:29;;;;;;;0.00;0.00;;;;;;;18.27;100.00;98766.63;4804261;29;20054;-90
2023/08/06 11:12:55;;;;;;;0.00;0.00;;;;;;;17.94;100.00;98747.94;4800235;29;20053;-91
2023/08/06 11:15:21;;;;;;;0.00;0.00;;;;;;;17.85;100.00;98765.84;4798176;29;20053;-91
2023/08/06 11:17:47;;;;;;;0.00;0.00;;;;;;;17.91;100.00;98779.84;4798785;29;20049;-89
2023/08/06 11:20:12;;;;;;;0.00;0.00;;;;;;;17.84;100.00;98780.38;4800323;29;20412;-91
2023/08/06 11:22:38;;;;;;;0.30;0.30;;;;;;;17.73;100.00;98774.81;4784675;29;20411;-89